sensor_id;sensor_type;location;lat;lon;timestamp;pressure;altitude;pressure_sealevel;temperature;humidity
53316;BME280;39204;53.896;11.432;2023-04-19T05:16:21;102898.63;;;7.74;100.00
53316;BME280;39204;53.896;11.432;2023-04-19T05:17:52;102888.72;;;7.44;100.00
53316;BME280;39204;53.896;11.432;2023-04-19T05:19:22;102887.84;;;7.68;100.00
53316;BME280;39204;53.896;11.432;2023-04-19T05:20:52;102893.22;;;7.51;100.00
53316;BME280;39204;53.896;11.432;2023-04-19T05:22:23;102892.84;;;7.63;100.00
53316;BME280;39204;53.896;11.432;2023-04-19T05:23:53;102887.47;;;7.71;100.00
53316;BME280;39204;53.896;11.432;2023-04-19T05:25:23;102898.00;;;7.72;100.00
53316;BME280;39204;53.896;11.432;2023-04-19T05:26:54;102891.97;;;8.10;100.00
53316;BME280;39204;53.896;11.432;2023-04-19T05:28:25;102893.88;;;8.01;100.00
53316;BME280;39204;53.896;11.432;2023-04-19T05:29:55;102882.47;;;8.07;100.00
53316;BME280;39204;53.896;11.432;2023-04-19T05:31:25;102889.66;;;8.61;100.00
53316;BME280;39204;53.896;11.432;2023-04-19T05:32:56;102885.47;;;8.81;100.00
53316;BME280;39204;53.896;11.432;2023-04-19T05:34:26;102891.44;;;8.14;100.00
53316;BME280;39204;53.896;11.432;2023-04-19T05:35:56;102894.78;;;9.23;100.00
53316;BME280;39204;53.896;11.432;2023-04-19T05:37:26;102888.53;;;9.16;100.00
53316;BME280;39204;53.896;11.432;2023-04-19T05:38:57;102895.53;;;9.17;100.00
53316;BME280;39204;53.896;11.432;2023-04-19T05:40:27;102898.06;;;8.95;100.00
53316;BME280;39204;53.896;11.432;2023-04-19T05:41:58;102895.66;;;8.63;100.00
53316;BME280;39204;53.896;11.432;2023-04-19T05:43:29;102887.78;;;8.84;100.00
53316;BME280;39204;53.896;11.432;2023-04-19T05:44:59;102886.66;;;8.33;100.00
53316;BME280;39204;53.896;11.432;2023-04-19T05:46:29;102886.63;;;8.41;100.00
53316;BME280;39204;53.896;11.432;2023-04-19T05:48:00;102883.72;;;8.51;100.00
53316;BME280;39204;53.896;11.432;2023-04-19T05:49:30;102885.34;;;8.75;100.00
53316;BME280;39204;53.896;11.432;2023-04-19T05:51:00;102875.72;;;8.19;100.00
53316;BME280;39204;53.896;11.432;2023-04-19T05:52:31;102879.09;;;8.13;100.00
53316;BME280;39204;53.896;11.432;2023-04-19T05:54:01;102885.25;;;8.45;100.00
53316;BME280;39204;53.896;11.432;2023-04-19T05:55:32;102882.47;;;8.30;100.00
53316;BME280;39204;53.896;11.432;2023-04-19T05:57:02;102875.75;;;8.11;100.00
53316;BME280;39204;53.896;11.432;2023-04-19T05:58:33;102875.19;;;7.93;100.00
53316;BME280;39204;53.896;11.432;2023-04-19T06:00:03;102880.13;;;8.35;100.00
53316;BME280;39204;53.896;11.432;2023-04-19T06:01:34;102883.44;;;8.45;100.00
53316;BME280;39204;53.896;11.432;2023-04-19T06:03:04;102886.84;;;8.77;100.00
53316;BME280;39204;53.896;11.432;2023-04-19T06:04:34;102888.72;;;8.54;100.00
53316;BME280;39204;53.896;11.432;2023-04-19T06:06:05;102885.06;;;8.69;100.00
53316;BME280;39204;53.896;11.432;2023-04-19T06:07:35;102899.84;;;8.03;100.00
53316;BME280;39204;53.896;11.432;2023-04-19T06:09:05;102884.31;;;8.30;100.00
53316;BME280;39204;53.896;11.432;2023-04-19T06:10:36;102887.56;;;8.48;100.00
53316;BME280;39204;53.896;11.432;2023-04-19T06:12:06;102887.44;;;8.41;100.00
53316;BME280;39204;53.896;11.432;2023-04-19T06:13:36;102888.72;;;8.54;100.00
53316;BME280;39204;53.896;11.432;2023-04-19T06:15:07;102883.16;;;8.78;100.00
53316;BME280;39204;53.896;11.432;2023-04-19T06:16:38;102885.31;;;8.83;100.00
53316;BME280;39204;53.896;11.432;2023-04-19T06:18:09;102883.03;;;8.57;100.00
53316;BME280;39204;53.896;11.432;2023-04-19T06:19:40;102885.22;;;8.91;100.00
53316;BME280;39204;53.896;11.432;2023-04-19T06:21:10;102888.06;;;8.20;100.00
53316;BME280;39204;53.896;11.432;2023-04-19T06:22:43;102885.91;;;8.47;100.00
53316;BME280;39204;53.896;11.432;2023-04-19T06:24:14;102882.72;;;8.20;100.00
53316;BME280;39204;53.896;11.432;2023-04-19T06:25:44;102885.44;;;8.66;100.00
53316;BME280;39204;53.896;11.432;2023-04-19T06:27:15;102885.47;;;8.35;100.00
53316;BME280;39204;53.896;11.432;2023-04-19T06:28:45;102882.06;;;8.50;100.00
53316;BME280;39204;53.896;11.432;2023-04-19T06:30:16;102873.16;;;8.57;100.00
53316;BME280;39204;53.896;11.432;2023-04-19T06:31:46;102890.50;;;8.30;100.00
53316;BME280;39204;53.896;11.432;2023-04-19T06:33:16;102904.69;;;8.62;100.00
53316;BME280;39204;53.896;11.432;2023-04-19T06:34:46;102891.75;;;8.19;100.00
53316;BME280;39204;53.896;11.432;2023-04-19T06:36:17;102895.34;;;8.35;100.00
53316;BME280;39204;53.896;11.432;2023-04-19T06:37:47;102904.00;;;8.37;100.00
53316;BME280;39204;53.896;11.432;2023-04-19T06:39:17;102888.16;;;8.35;100.00
53316;BME280;39204;53.896;11.432;2023-04-19T06:40:48;102891.88;;;8.57;100.00
53316;BME280;39204;53.896;11.432;2023-04-19T06:42:18;102893.75;;;8.71;100.00
53316;BME280;39204;53.896;11.432;2023-04-19T06:43:49;102889.84;;;8.05;100.00
53316;BME280;39204;53.896;11.432;2023-04-19T06:45:20;102897.44;;;8.16;100.00
53316;BME280;39204;53.896;11.432;2023-04-19T06:46:50;102886.28;;;8.13;100.00
53316;BME280;39204;53.896;11.432;2023-04-19T06:48:21;102895.34;;;8.35;100.00
53316;BME280;39204;53.896;11.432;2023-04-19T06:49:51;102894.78;;;8.16;100.00
53316;BME280;39204;53.896;11.432;2023-04-19T06:51:21;102899.25;;;8.24;100.00
53316;BME280;39204;53.896;11.432;2023-04-19T06:52:52;102892.00;;;8.33;100.00
53316;BME280;39204;53.896;11.432;2023-04-19T06:54:22;102892.84;;;8.56;100.00
53316;BME280;39204;53.896;11.432;2023-04-19T06:55:59;102891.72;;;8.73;100.00
53316;BME280;39204;53.896;11.432;2023-04-19T06:57:30;102882.47;;;8.61;100.00
53316;BME280;39204;53.896;11.432;2023-04-19T06:59:00;102893.03;;;8.55;100.00
53316;BME280;39204;53.896;11.432;2023-04-19T07:00:30;102890.63;;;8.37;100.00
53316;BME280;39204;53.896;11.432;2023-04-19T07:02:01;102887.75;;;8.15;100.00
53316;BME280;39204;53.896;11.432;2023-04-19T07:03:31;102880.28;;;8.11;100.00
53316;BME280;39204;53.896;11.432;2023-04-19T07:05:02;102891.56;;;8.52;100.00
53316;BME280;39204;53.896;11.432;2023-04-19T07:06:34;102888.59;;;8.47;100.00
53316;BME280;39204;53.896;11.432;2023-04-19T07:08:04;102889.13;;;8.34;100.00
53316;BME280;39204;53.896;11.432;2023-04-19T07:09:35;102884.28;;;8.84;100.00
53316;BME280;39204;53.896;11.432;2023-04-19T07:11:05;102896.81;;;8.45;100.00
53316;BME280;39204;53.896;11.432;2023-04-19T07:12:35;102877.59;;;8.65;100.00
53316;BME280;39204;53.896;11.432;2023-04-19T07:14:05;102889.34;;;8.56;100.00
53316;BME280;39204;53.896;11.432;2023-04-19T07:15:36;102876.31;;;8.30;100.00
53316;BME280;39204;53.896;11.432;2023-04-19T07:17:06;102888.78;;;8.68;100.00
53316;BME280;39204;53.896;11.432;2023-04-19T07:18:36;102877.75;;;8.63;100.00
53316;BME280;39204;53.896;11.432;2023-04-19T07:20:07;102871.69;;;8.23;100.00
53316;BME280;39204;53.896;11.432;2023-04-19T07:21:38;102876.28;;;8.38;100.00
53316;BME280;39204;53.896;11.432;2023-04-19T07:23:09;102874.94;;;8.34;100.00
53316;BME280;39204;53.896;11.432;2023-04-19T07:24:39;102862.09;;;8.60;100.00
53316;BME280;39204;53.896;11.432;2023-04-19T07:26:11;102859.28;;;8.31;100.00
53316;BME280;39204;53.896;11.432;2023-04-19T07:27:41;102861.91;;;8.62;100.00
53316;BME280;39204;53.896;11.432;2023-04-19T07:29:11;102858.69;;;8.66;100.00
53316;BME280;39204;53.896;11.432;2023-04-19T07:30:42;102857.53;;;8.84;100.00
53316;BME280;39204;53.896;11.432;2023-04-19T07:32:15;102868.16;;;8.54;100.00
53316;BME280;39204;53.896;11.432;2023-04-19T07:33:45;102875.56;;;8.90;100.00
53316;BME280;39204;53.896;11.432;2023-04-19T07:35:15;102853.34;;;9.19;100.00
53316;BME280;39204;53.896;11.432;2023-04-19T07:36:46;102870.22;;;9.19;100.00
53316;BME280;39204;53.896;11.432;2023-04-19T07:38:16;102857.34;;;8.85;100.00
53316;BME280;39204;53.896;11.432;2023-04-19T07:39:47;102860.84;;;8.48;100.00
53316;BME280;39204;53.896;11.432;2023-04-19T07:41:17;102846.06;;;8.60;100.00
53316;BME280;39204;53.896;11.432;2023-04-19T07:42:47;102859.34;;;9.06;100.00
53316;BME280;39204;53.896;11.432;2023-04-19T07:44:18;102857.75;;;8.97;100.00
53316;BME280;39204;53.896;11.432;2023-04-19T07:45:48;102856.19;;;9.03;100.00
53316;BME280;39204;53.896;11.432;2023-04-19T07:47:18;102858.16;;;9.09;100.00
53316;BME280;39204;53.896;11.432;2023-04-19T07:48:48;102855.03;;;8.82;100.00
53316;BME280;39204;53.896;11.432;2023-04-19T07:50:19;102841.38;;;8.77;100.00
53316;BME280;39204;53.896;11.432;2023-04-19T07:51:49;102850.84;;;9.17;100.00
53316;BME280;39204;53.896;11.432;2023-04-19T07:53:19;102852.06;;;9.30;100.00
53316;BME280;39204;53.896;11.432;2023-04-19T07:54:50;102850.19;;;9.30;100.00
53316;BME280;39204;53.896;11.432;2023-04-19T07:56:21;102857.41;;;9.15;100.00
53316;BME280;39204;53.896;11.432;2023-04-19T07:57:51;102861.00;;;9.52;100.00
53316;BME280;39204;53.896;11.432;2023-04-19T07:59:21;102854.25;;;9.11;100.00
53316;BME280;39204;53.896;11.432;2023-04-19T08:00:52;102860.34;;;9.05;100.00
53316;BME280;39204;53.896;11.432;2023-04-19T08:03:53;102835.97;;;9.44;100.00
53316;BME280;39204;53.896;11.432;2023-04-19T08:05:23;102854.16;;;9.05;100.00
53316;BME280;39204;53.896;11.432;2023-04-19T08:06:53;102868.56;;;9.04;99.06
53316;BME280;39204;53.896;11.432;2023-04-19T08:08:24;102851.97;;;8.70;99.06
53316;BME280;39204;53.896;11.432;2023-04-19T08:10:23;102854.22;;;8.96;99.87
53316;BME280;39204;53.896;11.432;2023-04-19T08:11:53;102854.72;;;9.15;100.00
53316;BME280;39204;53.896;11.432;2023-04-19T08:13:23;102857.13;;;9.10;100.00
53316;BME280;39204;53.896;11.432;2023-04-19T08:14:53;102845.97;;;9.36;99.33
53316;BME280;39204;53.896;11.432;2023-04-19T08:16:24;102842.25;;;9.66;99.88
53316;BME280;39204;53.896;11.432;2023-04-19T08:17:54;102837.25;;;9.63;100.00
53316;BME280;39204;53.896;11.432;2023-04-19T08:19:24;102840.72;;;9.42;100.00
53316;BME280;39204;53.896;11.432;2023-04-19T08:20:55;102832.31;;;9.60;100.00
53316;BME280;39204;53.896;11.432;2023-04-19T08:22:25;102850.72;;;9.70;100.00
53316;BME280;39204;53.896;11.432;2023-04-19T08:23:56;102835.03;;;9.67;99.12
53316;BME280;39204;53.896;11.432;2023-04-19T08:25:26;102847.34;;;9.47;97.46
53316;BME280;39204;53.896;11.432;2023-04-19T08:26:57;102855.63;;;9.07;98.25
53316;BME280;39204;53.896;11.432;2023-04-19T08:28:28;102843.75;;;9.25;98.13
53316;BME280;39204;53.896;11.432;2023-04-19T08:29:58;102834.78;;;9.03;98.51
53316;BME280;39204;53.896;11.432;2023-04-19T08:31:28;102839.13;;;9.18;97.08
53316;BME280;39204;53.896;11.432;2023-04-19T08:32:58;102828.06;;;9.36;96.93
53316;BME280;39204;53.896;11.432;2023-04-19T08:34:30;102842.09;;;9.09;96.71
53316;BME280;39204;53.896;11.432;2023-04-19T08:36:00;102824.09;;;9.32;97.45
53316;BME280;39204;53.896;11.432;2023-04-19T08:37:31;102831.09;;;9.18;95.32
53316;BME280;39204;53.896;11.432;2023-04-19T08:39:01;102828.88;;;9.07;94.53
53316;BME280;39204;53.896;11.432;2023-04-19T08:40:31;102827.50;;;9.11;91.66
53316;BME280;39204;53.896;11.432;2023-04-19T08:42:06;102825.13;;;9.31;92.09
53316;BME280;39204;53.896;11.432;2023-04-19T08:43:37;102821.78;;;9.14;97.20
53316;BME280;39204;53.896;11.432;2023-04-19T08:45:08;102827.34;;;9.13;100.00
53316;BME280;39204;53.896;11.432;2023-04-19T08:46:41;102834.44;;;9.20;100.00
53316;BME280;39204;53.896;11.432;2023-04-19T08:48:12;102816.34;;;9.08;93.32
53316;BME280;39204;53.896;11.432;2023-04-19T08:49:43;102834.53;;;9.27;94.11
53316;BME280;39204;53.896;11.432;2023-04-19T08:51:16;102832.13;;;9.32;96.88
53316;BME280;39204;53.896;11.432;2023-04-19T08:52:46;102825.38;;;9.21;96.14
53316;BME280;39204;53.896;11.432;2023-04-19T08:54:17;102822.59;;;9.00;99.18
53316;BME280;39204;53.896;11.432;2023-04-19T08:55:48;102832.03;;;9.26;100.00
53316;BME280;39204;53.896;11.432;2023-04-19T08:57:19;102829.09;;;9.35;100.00
53316;BME280;39204;53.896;11.432;2023-04-19T08:58:49;102819.06;;;9.59;100.00
53316;BME280;39204;53.896;11.432;2023-04-19T09:00:20;102807.75;;;9.42;100.00
53316;BME280;39204;53.896;11.432;2023-04-19T09:01:50;102821.88;;;9.36;96.06
53316;BME280;39204;53.896;11.432;2023-04-19T09:03:20;102807.75;;;9.42;95.81
53316;BME280;39204;53.896;11.432;2023-04-19T09:04:51;102810.00;;;9.24;93.43
53316;BME280;39204;53.896;11.432;2023-04-19T09:06:21;102811.81;;;9.38;93.16
53316;BME280;39204;53.896;11.432;2023-04-19T09:07:51;102816.66;;;9.64;90.69
53316;BME280;39204;53.896;11.432;2023-04-19T09:09:26;102809.09;;;9.53;89.33
53316;BME280;39204;53.896;11.432;2023-04-19T09:10:59;102801.47;;;9.50;96.61
53316;BME280;39204;53.896;11.432;2023-04-19T09:12:29;102793.94;;;9.24;89.08
53316;BME280;39204;53.896;11.432;2023-04-19T09:14:07;102798.72;;;9.28;86.76
53316;BME280;39204;53.896;11.432;2023-04-19T09:15:39;102792.03;;;9.54;87.90
53316;BME280;39204;53.896;11.432;2023-04-19T09:17:13;102790.34;;;9.16;84.57
53316;BME280;39204;53.896;11.432;2023-04-19T09:18:54;102800.53;;;9.57;86.76
53316;BME280;39204;53.896;11.432;2023-04-19T09:20:41;102806.44;;;9.53;87.58
53316;BME280;39204;53.896;11.432;2023-04-19T09:22:13;102799.53;;;9.29;86.04
53316;BME280;39204;53.896;11.432;2023-04-19T09:23:45;102786.16;;;9.43;87.37
53316;BME280;39204;53.896;11.432;2023-04-19T09:25:25;102803.66;;;9.61;89.19
53316;BME280;39204;53.896;11.432;2023-04-19T09:26:55;102791.22;;;9.53;88.29
53316;BME280;39204;53.896;11.432;2023-04-19T09:28:27;102781.88;;;9.49;86.12
53316;BME280;39204;53.896;11.432;2023-04-19T09:30:02;102786.91;;;9.74;85.71
53316;BME280;39204;53.896;11.432;2023-04-19T09:31:35;102791.28;;;9.60;85.96
53316;BME280;39204;53.896;11.432;2023-04-19T09:33:06;102789.38;;;9.54;87.02
53316;BME280;39204;53.896;11.432;2023-04-19T09:34:49;102776.47;;;9.64;88.27
53316;BME280;39204;53.896;11.432;2023-04-19T09:36:27;102771.88;;;9.73;88.25
53316;BME280;39204;53.896;11.432;2023-04-19T09:37:59;102772.94;;;9.78;87.26
53316;BME280;39204;53.896;11.432;2023-04-19T09:39:32;102775.22;;;9.60;86.43
53316;BME280;39204;53.896;11.432;2023-04-19T09:41:06;102779.38;;;9.62;83.71
53316;BME280;39204;53.896;11.432;2023-04-19T09:42:44;102780.28;;;9.69;82.70
53316;BME280;39204;53.896;11.432;2023-04-19T09:44:15;102783.63;;;9.57;81.17
53316;BME280;39204;53.896;11.432;2023-04-19T09:45:46;102770.31;;;9.63;80.18
53316;BME280;39204;53.896;11.432;2023-04-19T09:47:26;102775.16;;;9.53;78.26
53316;BME280;39204;53.896;11.432;2023-04-19T09:49:15;102769.09;;;9.66;79.14
53316;BME280;39204;53.896;11.432;2023-04-19T09:50:57;102779.16;;;9.64;78.41
53316;BME280;39204;53.896;11.432;2023-04-19T09:52:27;102772.47;;;9.53;79.34
53316;BME280;39204;53.896;11.432;2023-04-19T09:53:58;102769.22;;;9.58;77.53
53316;BME280;39204;53.896;11.432;2023-04-19T09:55:29;102756.91;;;9.63;77.24
53316;BME280;39204;53.896;11.432;2023-04-19T09:56:59;102763.44;;;9.76;79.35
53316;BME280;39204;53.896;11.432;2023-04-19T09:58:30;102751.06;;;9.75;78.70
53316;BME280;39204;53.896;11.432;2023-04-19T10:00:01;102760.28;;;9.87;79.67
53316;BME280;39204;53.896;11.432;2023-04-19T10:01:44;102753.34;;;9.56;72.47
53316;BME280;39204;53.896;11.432;2023-04-19T10:03:15;102759.38;;;9.80;70.94
53316;BME280;39204;53.896;11.432;2023-04-19T10:04:46;102771.75;;;9.81;68.83
53316;BME280;39204;53.896;11.432;2023-04-19T10:06:19;102750.25;;;9.96;69.15
53316;BME280;39204;53.896;11.432;2023-04-19T10:07:50;102777.28;;;10.01;72.52
53316;BME280;39204;53.896;11.432;2023-04-19T10:09:22;102745.03;;;9.87;70.32
53316;BME280;39204;53.896;11.432;2023-04-19T10:10:53;102743.69;;;9.98;69.86
53316;BME280;39204;53.896;11.432;2023-04-19T10:12:25;102751.84;;;9.68;69.61
53316;BME280;39204;53.896;11.432;2023-04-19T10:13:59;102749.09;;;9.62;67.73
53316;BME280;39204;53.896;11.432;2023-04-19T10:15:31;102745.94;;;9.58;66.62
53316;BME280;39204;53.896;11.432;2023-04-19T10:17:01;102757.53;;;9.80;65.75
53316;BME280;39204;53.896;11.432;2023-04-19T10:18:32;102734.28;;;9.66;65.18
53316;BME280;39204;53.896;11.432;2023-04-19T10:20:06;102740.75;;;9.72;67.54
53316;BME280;39204;53.896;11.432;2023-04-19T10:21:42;102744.63;;;10.12;68.74
53316;BME280;39204;53.896;11.432;2023-04-19T10:23:16;102753.22;;;9.86;67.11
53316;BME280;39204;53.896;11.432;2023-04-19T10:25:07;102743.38;;;9.86;67.14
53316;BME280;39204;53.896;11.432;2023-04-19T10:27:08;102745.69;;;9.75;64.75
53316;BME280;39204;53.896;11.432;2023-04-19T10:28:41;102734.31;;;9.87;65.37
53316;BME280;39204;53.896;11.432;2023-04-19T10:30:17;102763.03;;;10.36;65.02
53316;BME280;39204;53.896;11.432;2023-04-19T10:31:49;102750.63;;;10.35;62.23
53316;BME280;39204;53.896;11.432;2023-04-19T10:33:27;102730.31;;;10.05;64.01
53316;BME280;39204;53.896;11.432;2023-04-19T10:35:01;102738.69;;;10.16;66.16
53316;BME280;39204;53.896;11.432;2023-04-19T10:36:33;102736.28;;;10.00;66.93
53316;BME280;39204;53.896;11.432;2023-04-19T10:38:12;102736.34;;;10.07;69.14
53316;BME280;39204;53.896;11.432;2023-04-19T10:39:44;102730.69;;;10.23;63.92
53316;BME280;39204;53.896;11.432;2023-04-19T10:41:15;102733.31;;;10.38;62.34
53316;BME280;39204;53.896;11.432;2023-04-19T10:44:41;102719.63;;;10.26;63.81
53316;BME280;39204;53.896;11.432;2023-04-19T10:46:15;102722.88;;;10.00;63.79
53316;BME280;39204;53.896;11.432;2023-04-19T10:47:46;102717.88;;;10.18;64.73
53316;BME280;39204;53.896;11.432;2023-04-19T10:49:16;102725.75;;;9.99;65.33
53316;BME280;39204;53.896;11.432;2023-04-19T10:51:13;102718.78;;;10.04;64.30
53316;BME280;39204;53.896;11.432;2023-04-19T10:52:43;102712.91;;;10.37;62.92
53316;BME280;39204;53.896;11.432;2023-04-19T10:55:56;102709.78;;;10.12;64.33
53316;BME280;39204;53.896;11.432;2023-04-19T10:57:26;102719.81;;;10.03;62.58
53316;BME280;39204;53.896;11.432;2023-04-19T11:00:31;102703.72;;;10.25;62.30
53316;BME280;39204;53.896;11.432;2023-04-19T11:02:04;102711.31;;;10.43;63.46
53316;BME280;39204;53.896;11.432;2023-04-19T11:05:14;102704.91;;;10.22;61.61
53316;BME280;39204;53.896;11.432;2023-04-19T11:08:24;102706.03;;;10.28;60.55
53316;BME280;39204;53.896;11.432;2023-04-19T11:09:54;102711.69;;;10.18;59.71
53316;BME280;39204;53.896;11.432;2023-04-19T11:11:25;102720.72;;;10.32;59.25
53316;BME280;39204;53.896;11.432;2023-04-19T11:12:56;102718.34;;;10.01;57.34
53316;BME280;39204;53.896;11.432;2023-04-19T11:14:32;102707.16;;;10.18;59.11
53316;BME280;39204;53.896;11.432;2023-04-19T11:16:09;102697.94;;;10.00;59.50
53316;BME280;39204;53.896;11.432;2023-04-19T11:17:39;102693.22;;;10.02;59.52
53316;BME280;39204;53.896;11.432;2023-04-19T11:19:18;102691.22;;;10.32;61.43
53316;BME280;39204;53.896;11.432;2023-04-19T11:20:52;102693.84;;;10.53;60.75
53316;BME280;39204;53.896;11.432;2023-04-19T11:22:35;102698.25;;;10.68;60.50
53316;BME280;39204;53.896;11.432;2023-04-19T11:24:09;102693.00;;;10.53;58.89
53316;BME280;39204;53.896;11.432;2023-04-19T11:25:39;102696.44;;;10.40;59.88
53316;BME280;39204;53.896;11.432;2023-04-19T11:27:10;102698.47;;;10.38;59.97
53316;BME280;39204;53.896;11.432;2023-04-19T11:28:43;102702.47;;;9.99;59.75
53316;BME280;39204;53.896;11.432;2023-04-19T11:30:18;102706.34;;;10.18;60.53
53316;BME280;39204;53.896;11.432;2023-04-19T11:31:50;102699.91;;;10.12;60.80
53316;BME280;39204;53.896;11.432;2023-04-19T11:33:22;102697.31;;;10.47;61.48
53316;BME280;39204;53.896;11.432;2023-04-19T11:34:55;102695.06;;;10.92;62.42
53316;BME280;39204;53.896;11.432;2023-04-19T11:36:25;102692.19;;;10.94;61.81
53316;BME280;39204;53.896;11.432;2023-04-19T11:37:57;102701.03;;;10.53;59.01
53316;BME280;39204;53.896;11.432;2023-04-19T11:39:28;102689.81;;;10.36;60.21
53316;BME280;39204;53.896;11.432;2023-04-19T11:41:02;102673.31;;;10.74;60.25
53316;BME280;39204;53.896;11.432;2023-04-19T11:42:32;102670.72;;;10.24;60.68
53316;BME280;39204;53.896;11.432;2023-04-19T11:44:03;102689.47;;;10.24;60.76
53316;BME280;39204;53.896;11.432;2023-04-19T11:45:37;102685.53;;;10.20;59.47
53316;BME280;39204;53.896;11.432;2023-04-19T11:47:07;102678.75;;;10.52;59.14
53316;BME280;39204;53.896;11.432;2023-04-19T11:48:48;102692.50;;;10.14;57.13
53316;BME280;39204;53.896;11.432;2023-04-19T11:50:34;102687.38;;;10.19;56.77
53316;BME280;39204;53.896;11.432;2023-04-19T11:52:05;102677.22;;;10.36;59.39
53316;BME280;39204;53.896;11.432;2023-04-19T11:53:35;102686.81;;;10.52;58.58
53316;BME280;39204;53.896;11.432;2023-04-19T11:55:18;102686.56;;;10.47;59.14
53316;BME280;39204;53.896;11.432;2023-04-19T11:57:04;102675.41;;;10.44;57.68
53316;BME280;39204;53.896;11.432;2023-04-19T11:58:45;102677.53;;;9.99;58.16
53316;BME280;39204;53.896;11.432;2023-04-19T12:00:26;102676.41;;;10.14;58.85
53316;BME280;39204;53.896;11.432;2023-04-19T12:02:23;102674.94;;;10.33;58.54
53316;BME280;39204;53.896;11.432;2023-04-19T12:03:54;102673.66;;;10.29;58.06
53316;BME280;39204;53.896;11.432;2023-04-19T12:05:27;102673.88;;;10.28;58.15
53316;BME280;39204;53.896;11.432;2023-04-19T12:06:58;102675.13;;;10.32;57.20
53316;BME280;39204;53.896;11.432;2023-04-19T12:08:33;102672.47;;;10.32;58.02
53316;BME280;39204;53.896;11.432;2023-04-19T12:10:11;102664.56;;;10.58;58.43
53316;BME280;39204;53.896;11.432;2023-04-19T12:11:43;102670.03;;;10.72;57.42
53316;BME280;39204;53.896;11.432;2023-04-19T12:13:17;102669.59;;;10.68;56.52
53316;BME280;39204;53.896;11.432;2023-04-19T12:14:51;102678.84;;;10.65;56.88
53316;BME280;39204;53.896;11.432;2023-04-19T12:16:27;102672.50;;;10.73;56.64
53316;BME280;39204;53.896;11.432;2023-04-19T12:18:00;102661.78;;;10.45;54.61
53316;BME280;39204;53.896;11.432;2023-04-19T12:19:34;102662.06;;;10.50;54.90
53316;BME280;39204;53.896;11.432;2023-04-19T12:21:06;102672.78;;;10.50;55.80
53316;BME280;39204;53.896;11.432;2023-04-19T12:22:36;102661.66;;;10.53;55.74
53316;BME280;39204;53.896;11.432;2023-04-19T12:24:06;102695.44;;;10.82;56.13
53316;BME280;39204;53.896;11.432;2023-04-19T12:25:37;102664.06;;;10.76;56.67
53316;BME280;39204;53.896;11.432;2023-04-19T12:27:08;102656.72;;;11.05;55.11
53316;BME280;39204;53.896;11.432;2023-04-19T12:28:39;102669.41;;;11.24;53.87
53316;BME280;39204;53.896;11.432;2023-04-19T12:30:09;102686.53;;;11.23;53.39
53316;BME280;39204;53.896;11.432;2023-04-19T12:31:40;102665.19;;;10.60;53.56
53316;BME280;39204;53.896;11.432;2023-04-19T12:33:10;102665.13;;;10.47;54.67
53316;BME280;39204;53.896;11.432;2023-04-19T12:34:40;102665.63;;;10.29;54.20
53316;BME280;39204;53.896;11.432;2023-04-19T12:36:11;102686.09;;;10.37;54.58
53316;BME280;39204;53.896;11.432;2023-04-19T12:37:42;102668.03;;;10.52;54.67
53316;BME280;39204;53.896;11.432;2023-04-19T12:39:15;102658.72;;;10.83;55.25
53316;BME280;39204;53.896;11.432;2023-04-19T12:40:46;102664.97;;;11.03;53.95
53316;BME280;39204;53.896;11.432;2023-04-19T12:42:16;102653.34;;;10.83;54.01
53316;BME280;39204;53.896;11.432;2023-04-19T12:43:47;102659.38;;;10.92;53.81
53316;BME280;39204;53.896;11.432;2023-04-19T12:45:18;102656.47;;;10.52;53.01
53316;BME280;39204;53.896;11.432;2023-04-19T12:46:48;102657.31;;;10.52;53.12
53316;BME280;39204;53.896;11.432;2023-04-19T12:48:19;102655.69;;;10.99;53.14
53316;BME280;39204;53.896;11.432;2023-04-19T12:49:49;102652.41;;;11.10;52.83
53316;BME280;39204;53.896;11.432;2023-04-19T12:51:20;102643.13;;;11.20;53.88
53316;BME280;39204;53.896;11.432;2023-04-19T12:52:50;102646.75;;;10.85;50.69
53316;BME280;39204;53.896;11.432;2023-04-19T12:54:22;102646.28;;;10.69;51.70
53316;BME280;39204;53.896;11.432;2023-04-19T12:55:52;102623.31;;;10.59;52.75
53316;BME280;39204;53.896;11.432;2023-04-19T12:57:23;102633.28;;;10.79;52.02
53316;BME280;39204;53.896;11.432;2023-04-19T12:58:53;102642.94;;;10.66;51.52
53316;BME280;39204;53.896;11.432;2023-04-19T13:00:23;102632.34;;;10.52;51.18
53316;BME280;39204;53.896;11.432;2023-04-19T13:01:54;102638.66;;;10.72;51.26
53316;BME280;39204;53.896;11.432;2023-04-19T13:03:24;102633.16;;;10.52;50.77
53316;BME280;39204;53.896;11.432;2023-04-19T13:04:54;102630.31;;;10.54;51.64
53316;BME280;39204;53.896;11.432;2023-04-19T13:06:25;102636.53;;;10.68;51.87
53316;BME280;39204;53.896;11.432;2023-04-19T13:07:55;102612.69;;;10.79;53.35
53316;BME280;39204;53.896;11.432;2023-04-19T13:09:26;102636.63;;;10.81;52.79
53316;BME280;39204;53.896;11.432;2023-04-19T13:10:56;102615.50;;;10.64;51.03
53316;BME280;39204;53.896;11.432;2023-04-19T13:12:29;102625.38;;;10.64;51.83
53316;BME280;39204;53.896;11.432;2023-04-19T13:14:00;102617.63;;;10.82;52.32
53316;BME280;39204;53.896;11.432;2023-04-19T13:15:30;102620.13;;;10.84;51.47
53316;BME280;39204;53.896;11.432;2023-04-19T13:17:00;102610.81;;;10.80;51.26
53316;BME280;39204;53.896;11.432;2023-04-19T13:18:31;102625.25;;;10.79;50.57
53316;BME280;39204;53.896;11.432;2023-04-19T13:20:01;102628.66;;;11.07;50.78
53316;BME280;39204;53.896;11.432;2023-04-19T13:21:31;102622.19;;;10.88;50.10
53316;BME280;39204;53.896;11.432;2023-04-19T13:23:01;102601.66;;;10.68;49.82